Time;durP1;ratioP1;P1;durP2;ratioP2;P2;SDS_P1;SDS_P2;PMS_P1;PMS_P2;Temp;Humidity;BMP_temperature;BMP_pressure;BME280_temperature;BME280_humidity;BME280_pressure;Samples;Min_cycle;Max_cycle;Signal;HPM_P1;HPM_P2
2022/12/17 13:07:22;;;;;;;0.28;0.28;;;2.10;99.90;;;;;;2045303;29;20043;-80
2022/12/17 13:08:24;;;;;;;0.10;0.10;;;2.10;99.90;;;;;;2031877;29;20024;-79
2022/12/17 13:09:35;;;;;;;0.10;0.10;;;2.10;99.90;;;;;;2028020;29;20033;-81
2022/12/17 13:10:38;;;;;;;0.45;0.30;;;2.20;99.90;;;;;;2026631;29;20031;-82
2022/12/17 13:11:47;;;;;;;1.23;1.13;;;2.10;99.90;;;;;;2031274;29;20032;-79
2022/12/17 13:12:51;;;;;;;0.30;0.28;;;2.20;99.90;;;;;;2037097;29;20145;-84
2022/12/17 13:13:54;;;;;;;0.00;0.00;;;2.10;99.90;;;;;;2034336;29;20043;-79
2022/12/17 13:15:15;;;;;;;1.20;0.57;;;2.20;99.90;;;;;;2047827;29;20055;-79
2022/12/17 13:16:53;;;;;;;0.25;0.20;;;2.20;99.90;;;;;;2047426;29;20039;-81
2022/12/17 13:18:07;;;;;;;0.10;0.10;;;2.20;99.90;;;;;;2037806;29;20069;-82
2022/12/17 13:19:42;;;;;;;0.00;0.00;;;2.20;99.90;;;;;;2041676;29;20043;-82
2022/12/17 13:21:06;;;;;;;0.20;0.20;;;2.20;99.90;;;;;;2039949;29;20054;-81
2022/12/17 13:22:27;;;;;;;0.30;0.30;;;2.20;99.90;;;;;;2032683;29;20098;-82
2022/12/17 13:23:32;;;;;;;1.48;0.55;;;2.10;99.90;;;;;;2042734;29;20074;-79
2022/12/17 13:24:33;;;;;;;1.67;1.13;;;2.20;99.90;;;;;;2039453;29;20354;-80
2022/12/17 13:25:34;;;;;;;1.33;0.40;;;2.20;99.90;;;;;;2031320;29;20035;-79
2022/12/17 13:26:44;;;;;;;0.47;0.47;;;2.20;99.90;;;;;;2024384;29;20037;-79
2022/12/17 13:27:46;;;;;;;0.10;0.10;;;2.20;99.90;;;;;;2048118;29;20008;-81
2022/12/17 13:28:56;;;;;;;0.20;0.20;;;2.20;99.90;;;;;;2032283;29;20040;-82
2022/12/17 13:30:20;;;;;;;0.52;0.22;;;2.20;99.90;;;;;;2033451;29;20036;-82
2022/12/17 13:31:39;;;;;;;0.52;0.30;;;2.20;99.90;;;;;;2041749;29;20052;-81
2022/12/17 13:32:55;;;;;;;0.10;0.10;;;2.20;99.90;;;;;;2028941;29;20029;-80
2022/12/17 13:34:22;;;;;;;0.10;0.10;;;2.20;99.90;;;;;;2033324;29;20029;-80
2022/12/17 13:35:47;;;;;;;0.10;0.10;;;2.30;99.90;;;;;;2033459;29;20028;-79
2022/12/17 13:36:56;;;;;;;0.10;0.10;;;2.20;99.90;;;;;;2041449;29;20039;-78
2022/12/17 13:38:41;;;;;;;0.40;0.35;;;2.30;99.90;;;;;;2028052;29;20080;-81
2022/12/17 13:40:24;;;;;;;0.00;0.00;;;2.30;99.90;;;;;;2039232;29;20024;-83
2022/12/17 13:41:30;;;;;;;0.10;0.10;;;2.30;99.90;;;;;;2041085;29;20029;-80
2022/12/17 13:42:34;;;;;;;0.10;0.10;;;2.30;99.90;;;;;;2032871;29;20041;-82
2022/12/17 13:46:06;;;;;;;0.10;0.10;;;2.30;99.90;;;;;;2064628;28;20027;-83
2022/12/17 13:47:27;;;;;;;0.00;0.00;;;2.30;99.90;;;;;;2039404;29;20530;-79
2022/12/17 13:48:28;;;;;;;0.10;0.10;;;2.30;99.90;;;;;;2031925;29;20036;-79
2022/12/17 13:49:40;;;;;;;0.43;0.30;;;2.30;99.90;;;;;;2036708;29;20119;-81
2022/12/17 13:50:59;;;;;;;0.10;0.10;;;2.30;99.90;;;;;;2034538;29;20271;-83
2022/12/17 13:52:20;;;;;;;0.28;0.28;;;2.30;99.90;;;;;;2027887;29;20028;-82
2022/12/17 13:53:21;;;;;;;0.10;0.10;;;2.40;99.90;;;;;;2049638;28;20126;-81
2022/12/17 13:55:39;;;;;;;0.00;0.00;;;2.30;99.90;;;;;;2035193;29;20057;-80
2022/12/17 13:56:53;;;;;;;0.10;0.10;;;2.30;99.90;;;;;;2040373;29;20040;-80
2022/12/17 14:01:08;;;;;;;0.00;0.00;;;2.30;99.90;;;;;;418234;23;21509;-78
2022/12/17 14:02:29;;;;;;;0.10;0.10;;;2.30;99.90;;;;;;2030954;29;20135;-81
2022/12/17 14:03:31;;;;;;;0.10;0.10;;;2.30;99.90;;;;;;2024156;29;20069;-81
2022/12/17 14:04:32;;;;;;;0.28;0.28;;;2.30;99.90;;;;;;2033166;29;20048;-80
2022/12/17 14:05:37;;;;;;;0.20;0.20;;;2.30;99.90;;;;;;2045438;29;20434;-82
2022/12/17 14:06:37;;;;;;;0.00;0.00;;;2.30;99.90;;;;;;2026126;29;20041;-79
2022/12/17 14:07:42;;;;;;;0.00;0.00;;;2.30;99.90;;;;;;2027205;29;20036;-80
2022/12/17 14:08:45;;;;;;;0.10;0.10;;;2.30;99.90;;;;;;2030831;29;20057;-82
2022/12/17 14:09:48;;;;;;;0.10;0.10;;;2.30;99.90;;;;;;2040477;29;20059;-84
2022/12/17 14:12:20;;;;;;;0.10;0.10;;;2.30;99.90;;;;;;2044714;29;20123;-83
2022/12/17 14:12:22;;;;;;;0.10;0.10;;;2.30;99.90;;;;;;2050291;29;20035;-81
2022/12/17 14:13:29;;;;;;;0.10;0.10;;;2.30;99.90;;;;;;2034378;29;20052;-81
2022/12/17 14:14:47;;;;;;;0.25;0.25;;;2.30;99.90;;;;;;2033017;29;20025;-83
2022/12/17 14:15:57;;;;;;;0.03;0.03;;;2.30;99.90;;;;;;2072682;23;20065;-82
2022/12/17 14:17:02;;;;;;;2.10;0.22;;;2.30;99.90;;;;;;2042484;29;20075;-81
2022/12/17 14:18:21;;;;;;;0.05;0.05;;;2.30;99.90;;;;;;2031098;29;20029;-79
2022/12/17 14:19:26;;;;;;;0.22;0.13;;;2.30;99.90;;;;;;2030442;29;20024;-79
2022/12/17 14:20:34;;;;;;;0.10;0.10;;;2.30;99.90;;;;;;2035373;29;20051;-80
2022/12/17 14:21:36;;;;;;;0.10;0.10;;;2.30;99.90;;;;;;2045117;29;20075;-80
2022/12/17 14:22:52;;;;;;;0.20;0.20;;;2.30;99.90;;;;;;2028214;29;20033;-79
2022/12/17 14:23:54;;;;;;;0.10;0.10;;;2.30;99.90;;;;;;2034473;29;20035;-79
2022/12/17 14:24:55;;;;;;;0.05;0.05;;;2.30;99.90;;;;;;2041685;29;20036;-78
2022/12/17 14:25:57;;;;;;;0.03;0.03;;;2.30;99.90;;;;;;2044007;29;20050;-80
2022/12/17 14:26:59;;;;;;;0.03;0.03;;;2.30;99.90;;;;;;2044429;29;20032;-79
2022/12/17 14:28:32;;;;;;;0.10;0.10;;;2.30;99.90;;;;;;2034543;29;20040;-79
2022/12/17 14:29:43;;;;;;;0.10;0.10;;;2.30;99.90;;;;;;2043312;29;20030;-81
2022/12/17 14:30:44;;;;;;;0.10;0.10;;;2.40;99.90;;;;;;2031478;29;20064;-81
2022/12/17 14:32:20;;;;;;;0.10;0.10;;;2.40;99.90;;;;;;2035203;29;20024;-79
2022/12/17 14:33:31;;;;;;;0.10;0.10;;;2.30;99.90;;;;;;2044141;29;20104;-80
2022/12/17 14:34:41;;;;;;;0.05;0.05;;;2.40;99.90;;;;;;2040495;29;20062;-80
2022/12/17 14:35:51;;;;;;;0.00;0.00;;;2.40;99.90;;;;;;2045623;29;20032;-79
2022/12/17 14:37:16;;;;;;;0.10;0.10;;;2.40;99.90;;;;;;2038828;29;20127;-79
2022/12/17 14:38:17;;;;;;;0.00;0.00;;;2.40;99.90;;;;;;2045937;29;20090;-79
2022/12/17 14:39:43;;;;;;;0.03;0.03;;;2.40;99.90;;;;;;2043937;29;20099;-80
2022/12/17 14:40:44;;;;;;;0.10;0.10;;;2.40;99.90;;;;;;2038497;29;20153;-80
2022/12/17 14:43:05;;;;;;;0.15;0.10;;;2.40;99.90;;;;;;2042961;29;20024;-79
2022/12/17 14:44:19;;;;;;;0.00;0.00;;;2.40;99.90;;;;;;2037976;29;20083;-80
2022/12/17 14:45:23;;;;;;;0.43;0.10;;;2.40;99.90;;;;;;2032501;29;20064;-79
2022/12/17 14:46:24;;;;;;;0.10;0.10;;;2.40;99.90;;;;;;2038862;29;20039;-80
2022/12/17 14:47:34;;;;;;;0.00;0.00;;;2.40;99.90;;;;;;2039849;29;20062;-81
2022/12/17 14:50:17;;;;;;;0.10;0.10;;;2.30;99.90;;;;;;2052431;28;20039;-80
2022/12/17 14:51:44;;;;;;;0.05;0.05;;;2.40;99.90;;;;;;2045252;29;20512;-80
2022/12/17 14:52:49;;;;;;;0.00;0.00;;;2.40;99.90;;;;;;2039120;29;20032;-80
2022/12/17 14:53:50;;;;;;;0.10;0.10;;;2.30;99.90;;;;;;2037034;29;20061;-80
2022/12/17 14:54:51;;;;;;;0.10;0.10;;;2.40;99.90;;;;;;2030060;29;20021;-80
2022/12/17 14:55:56;;;;;;;0.20;0.17;;;2.40;99.90;;;;;;2027830;29;20662;-80
2022/12/17 14:56:58;;;;;;;0.20;0.20;;;2.40;99.90;;;;;;2039034;29;20036;-80
2022/12/17 14:58:26;;;;;;;0.00;0.00;;;2.40;99.90;;;;;;2035182;29;20029;-80
2022/12/17 14:59:37;;;;;;;0.20;0.20;;;2.40;99.90;;;;;;2038927;29;20103;-80
2022/12/17 15:00:44;;;;;;;0.08;0.08;;;2.40;99.90;;;;;;2037670;29;20016;-80
2022/12/17 15:01:45;;;;;;;0.10;0.10;;;2.40;99.90;;;;;;2039930;29;20024;-80
2022/12/17 15:02:51;;;;;;;0.00;0.00;;;2.40;99.90;;;;;;2037701;29;20468;-79
2022/12/17 15:03:51;;;;;;;4.68;0.30;;;2.40;99.90;;;;;;2033951;29;20047;-80
2022/12/17 15:04:56;;;;;;;0.10;0.10;;;2.40;99.90;;;;;;2037698;29;20039;-79
2022/12/17 15:06:03;;;;;;;0.10;0.10;;;2.40;99.90;;;;;;2044482;29;20100;-82
2022/12/17 15:07:05;;;;;;;0.10;0.10;;;2.40;99.90;;;;;;2030002;29;20029;-79
2022/12/17 15:08:06;;;;;;;0.10;0.10;;;2.40;99.90;;;;;;2036919;29;20035;-79
2022/12/17 15:09:09;;;;;;;0.23;0.13;;;2.40;99.90;;;;;;2032606;29;20123;-78
2022/12/17 15:10:16;;;;;;;0.00;0.00;;;2.40;99.90;;;;;;2037650;29;20032;-80
2022/12/17 15:11:19;;;;;;;0.00;0.00;;;2.40;99.90;;;;;;2037145;29;20032;-80
2022/12/17 15:12:21;;;;;;;0.55;0.28;;;2.40;99.90;;;;;;2025617;29;20025;-82
2022/12/17 15:13:45;;;;;;;;;;;2.40;99.90;;;;;;2035444;29;20047;-83
2022/12/17 15:17:27;;;;;;;0.00;0.00;;;2.40;99.90;;;;;;284941;23;20452;-80
2022/12/17 15:18:28;;;;;;;0.10;0.10;;;2.40;99.90;;;;;;2038146;29;20048;-83
2022/12/17 15:20:01;;;;;;;0.00;0.00;;;2.40;99.90;;;;;;2032652;29;20093;-84
2022/12/17 15:21:02;;;;;;;0.10;0.10;;;2.40;99.90;;;;;;2046709;29;20095;-79
2022/12/17 15:22:26;;;;;;;0.00;0.00;;;2.40;99.90;;;;;;2051549;29;20056;-84
2022/12/17 15:23:40;;;;;;;0.10;0.10;;;2.40;99.90;;;;;;2045286;29;20028;-84
2022/12/17 15:24:54;;;;;;;0.10;0.10;;;2.40;99.90;;;;;;2059946;28;20015;-84
2022/12/17 15:25:55;;;;;;;0.43;0.43;;;2.40;99.90;;;;;;2049528;29;20035;-81
2022/12/17 15:26:58;;;;;;;0.00;0.00;;;2.40;99.90;;;;;;2042435;29;20048;-83
2022/12/17 15:28:06;;;;;;;0.10;0.10;;;2.40;99.90;;;;;;2049291;29;20563;-80
2022/12/17 15:29:07;;;;;;;0.10;0.10;;;2.40;99.90;;;;;;2054330;29;20030;-79
2022/12/17 15:30:13;;;;;;;0.20;0.10;;;2.40;99.90;;;;;;2049061;29;20059;-79
2022/12/17 15:31:14;;;;;;;0.08;0.08;;;2.40;99.90;;;;;;2039624;29;20039;-80
2022/12/17 15:32:20;;;;;;;0.10;0.10;;;2.40;99.90;;;;;;2056398;28;20489;-82
2022/12/17 15:33:24;;;;;;;0.10;0.10;;;2.40;99.90;;;;;;2047252;29;20093;-80
2022/12/17 15:34:26;;;;;;;0.17;0.17;;;2.40;99.90;;;;;;2046874;28;20107;-79
2022/12/17 15:35:28;;;;;;;0.05;0.05;;;2.40;99.90;;;;;;2052508;29;20113;-79
2022/12/17 15:36:33;;;;;;;0.00;0.00;;;2.40;99.90;;;;;;2048675;29;20118;-80
2022/12/17 15:37:33;;;;;;;0.20;0.20;;;2.40;99.90;;;;;;2047287;29;20031;-79
2022/12/17 15:38:34;;;;;;;0.10;0.10;;;2.40;99.90;;;;;;2040332;29;20023;-80
2022/12/17 15:39:35;;;;;;;0.10;0.10;;;2.40;99.90;;;;;;2037744;29;20043;-80
2022/12/17 15:40:36;;;;;;;0.20;0.20;;;2.40;99.90;;;;;;2032969;29;20108;-78
2022/12/17 15:43:12;;;;;;;0.17;0.17;;;2.30;99.90;;;;;;2052857;28;20050;-78
2022/12/17 15:44:13;;;;;;;0.15;0.05;;;2.30;99.90;;;;;;2047331;29;20075;-79
2022/12/17 15:45:13;;;;;;;3.30;0.33;;;2.30;99.90;;;;;;2041325;29;20083;-79
2022/12/17 15:46:15;;;;;;;0.03;0.03;;;2.30;99.90;;;;;;2037945;29;20028;-79
2022/12/17 15:47:15;;;;;;;0.10;0.10;;;2.30;99.90;;;;;;2037324;29;20042;-79
2022/12/17 15:48:19;;;;;;;0.00;0.00;;;2.30;99.90;;;;;;2037798;29;20092;-80
2022/12/17 15:49:20;;;;;;;0.10;0.10;;;2.30;99.90;;;;;;2046512;29;20035;-78
2022/12/17 15:50:21;;;;;;;0.03;0.03;;;2.30;99.90;;;;;;2053694;28;20090;-79
2022/12/17 15:51:22;;;;;;;0.53;0.47;;;2.30;99.90;;;;;;2063133;28;20034;-80
2022/12/17 15:52:23;;;;;;;0.00;0.00;;;2.30;99.90;;;;;;2062341;28;20023;-79
2022/12/17 15:53:24;;;;;;;0.10;0.10;;;2.30;99.90;;;;;;2056058;28;20043;-80
2022/12/17 15:54:24;;;;;;;0.10;0.10;;;2.30;99.90;;;;;;2039956;29;20063;-79
2022/12/17 15:55:25;;;;;;;0.20;0.20;;;2.20;99.90;;;;;;2038154;29;20032;-80
2022/12/17 15:56:27;;;;;;;0.10;0.10;;;2.20;99.90;;;;;;2043117;29;20031;-80
2022/12/17 15:57:28;;;;;;;0.10;0.10;;;2.30;99.90;;;;;;2038358;29;20126;-80
2022/12/17 15:58:29;;;;;;;2.03;0.30;;;2.30;99.90;;;;;;2038450;29;20040;-80
2022/12/17 15:59:32;;;;;;;0.10;0.10;;;2.30;99.90;;;;;;2047794;28;20105;-79
2022/12/17 16:00:33;;;;;;;0.10;0.10;;;2.30;99.90;;;;;;2040520;29;20055;-80
2022/12/17 16:01:35;;;;;;;0.00;0.00;;;2.30;99.90;;;;;;2037809;29;20040;-79
2022/12/17 16:02:36;;;;;;;0.28;0.28;;;2.30;99.90;;;;;;2045292;29;20035;-79
2022/12/17 16:03:36;;;;;;;0.00;0.00;;;2.30;99.90;;;;;;2045568;29;20043;-79
2022/12/17 16:04:37;;;;;;;0.00;0.00;;;2.30;99.90;;;;;;2047508;29;20031;-80
2022/12/17 16:05:38;;;;;;;0.00;0.00;;;2.20;99.90;;;;;;2045893;29;20040;-79
2022/12/17 16:06:39;;;;;;;0.10;0.10;;;2.20;99.90;;;;;;2053059;28;20035;-79
2022/12/17 16:07:42;;;;;;;0.00;0.00;;;2.20;99.90;;;;;;2043384;29;20177;-79
2022/12/17 16:08:42;;;;;;;0.00;0.00;;;2.20;99.90;;;;;;2038855;29;20432;-79
2022/12/17 16:09:43;;;;;;;0.10;0.10;;;2.20;99.90;;;;;;2046793;29;20040;-80
2022/12/17 16:10:44;;;;;;;0.10;0.10;;;2.20;99.90;;;;;;2046051;29;20031;-79
2022/12/17 16:11:45;;;;;;;0.10;0.10;;;2.20;99.90;;;;;;2038067;29;20119;-80
2022/12/17 16:12:45;;;;;;;0.00;0.00;;;2.30;99.90;;;;;;2051611;29;20031;-79
2022/12/17 16:13:48;;;;;;;0.10;0.10;;;2.20;99.90;;;;;;2039668;29;20039;-79
2022/12/17 16:14:49;;;;;;;0.40;0.40;;;2.20;99.90;;;;;;2035367;29;20031;-78
2022/12/17 16:15:56;;;;;;;0.10;0.10;;;2.20;99.90;;;;;;2042562;29;20379;-79
2022/12/17 16:16:57;;;;;;;0.10;0.10;;;2.30;99.90;;;;;;2054569;28;20481;-78
2022/12/17 16:17:58;;;;;;;0.10;0.10;;;2.20;99.90;;;;;;2038743;29;20052;-78
2022/12/17 16:19:00;;;;;;;0.00;0.00;;;2.20;99.90;;;;;;2046085;29;20050;-79
2022/12/17 16:20:03;;;;;;;0.10;0.10;;;2.20;99.90;;;;;;2052839;28;20103;-79
2022/12/17 16:21:06;;;;;;;0.13;0.13;;;2.20;99.90;;;;;;2047859;29;20040;-79
2022/12/17 16:22:07;;;;;;;0.10;0.10;;;2.20;99.90;;;;;;2042842;29;20027;-79
2022/12/17 16:23:08;;;;;;;0.15;0.13;;;2.20;99.90;;;;;;2038132;29;20060;-79
2022/12/17 16:24:09;;;;;;;0.10;0.10;;;2.20;99.90;;;;;;2032498;29;20029;-79
2022/12/17 16:25:11;;;;;;;0.00;0.00;;;2.20;99.90;;;;;;2030938;29;20040;-80
2022/12/17 16:26:12;;;;;;;0.00;0.00;;;2.20;99.90;;;;;;2047914;28;20023;-79
2022/12/17 16:27:16;;;;;;;0.22;0.20;;;2.20;99.90;;;;;;2036611;29;20029;-78
2022/12/17 16:28:17;;;;;;;0.00;0.00;;;2.30;99.90;;;;;;2031960;29;20132;-79
2022/12/17 16:29:18;;;;;;;0.10;0.10;;;2.30;99.90;;;;;;2031506;29;20527;-79
2022/12/17 16:30:19;;;;;;;0.10;0.10;;;2.30;99.90;;;;;;2033759;29;20025;-80
2022/12/17 16:31:23;;;;;;;0.10;0.10;;;2.30;99.90;;;;;;2032655;29;20028;-81
2022/12/17 16:32:25;;;;;;;0.20;0.05;;;2.30;99.90;;;;;;2038402;29;20051;-79
2022/12/17 16:33:26;;;;;;;0.10;0.10;;;2.30;99.90;;;;;;2030264;29;20024;-78
2022/12/17 16:34:27;;;;;;;0.10;0.10;;;2.30;99.90;;;;;;2026398;29;20033;-78
2022/12/17 16:35:28;;;;;;;1.25;0.75;;;2.30;99.90;;;;;;2028631;29;20033;-78
2022/12/17 16:36:29;;;;;;;0.00;0.00;;;2.30;99.90;;;;;;2029956;29;20029;-79
2022/12/17 16:37:30;;;;;;;0.00;0.00;;;2.30;99.80;;;;;;2029261;29;20123;-80
2022/12/17 16:38:31;;;;;;;0.03;0.03;;;2.30;99.80;;;;;;2040940;29;20058;-79
2022/12/17 16:39:32;;;;;;;0.10;0.10;;;2.30;99.80;;;;;;2029683;29;20056;-78
2022/12/17 16:40:33;;;;;;;0.28;0.28;;;2.20;99.90;;;;;;2032493;29;20053;-78
2022/12/17 16:41:34;;;;;;;0.13;0.13;;;2.20;99.90;;;;;;2035614;29;20100;-78
2022/12/17 16:42:38;;;;;;;0.83;0.30;;;2.30;99.90;;;;;;2033342;29;20040;-79
2022/12/17 16:43:39;;;;;;;0.17;0.17;;;2.30;99.80;;;;;;2037098;29;20028;-79
2022/12/17 16:44:40;;;;;;;0.00;0.00;;;2.20;99.80;;;;;;2031749;29;20031;-79
2022/12/17 16:45:47;;;;;;;0.10;0.10;;;2.30;99.80;;;;;;2043783;29;20032;-79
2022/12/17 16:46:48;;;;;;;0.00;0.00;;;2.20;99.80;;;;;;2036871;29;20040;-81
2022/12/17 16:47:49;;;;;;;0.10;0.10;;;2.20;99.80;;;;;;2046569;29;20470;-79
2022/12/17 16:48:51;;;;;;;0.10;0.10;;;2.20;99.80;;;;;;2040745;29;20032;-80
2022/12/17 16:49:52;;;;;;;0.00;0.00;;;2.20;99.90;;;;;;2029335;29;20413;-78
2022/12/17 16:50:53;;;;;;;0.00;0.00;;;2.20;99.90;;;;;;2033095;29;20047;-80
2022/12/17 16:51:55;;;;;;;0.82;0.20;;;2.10;99.90;;;;;;2039436;29;20051;-78
2022/12/17 16:52:55;;;;;;;0.10;0.10;;;2.20;99.90;;;;;;2030432;29;20025;-78
2022/12/17 16:53:57;;;;;;;0.10;0.10;;;2.20;99.80;;;;;;2037477;29;20031;-79
2022/12/17 16:54:58;;;;;;;0.15;0.15;;;2.20;99.80;;;;;;2028924;29;20575;-80
2022/12/17 16:55:59;;;;;;;2.97;0.33;;;2.20;99.80;;;;;;2032413;29;20035;-79
2022/12/17 16:57:00;;;;;;;0.00;0.00;;;2.10;99.80;;;;;;2041265;29;20286;-79
2022/12/17 16:58:01;;;;;;;5.30;0.77;;;2.10;99.90;;;;;;2034753;29;20068;-80
2022/12/17 16:59:03;;;;;;;0.13;0.13;;;2.20;99.80;;;;;;2031535;29;20031;-78
2022/12/17 17:00:04;;;;;;;1.75;0.82;;;2.20;99.80;;;;;;2041720;29;20032;-79
2022/12/17 17:01:05;;;;;;;0.20;0.20;;;2.20;99.70;;;;;;2036979;29;20060;-78
2022/12/17 17:02:12;;;;;;;0.10;0.10;;;2.10;99.70;;;;;;2035981;29;20124;-79
2022/12/17 17:03:13;;;;;;;0.10;0.10;;;2.10;99.70;;;;;;2038482;29;20035;-78
2022/12/17 17:04:18;;;;;;;0.03;0.03;;;2.10;99.70;;;;;;2031551;29;20024;-78
2022/12/17 17:05:19;;;;;;;0.10;0.10;;;2.10;99.80;;;;;;2037367;29;20498;-79
2022/12/17 17:06:20;;;;;;;0.10;0.10;;;2.10;99.80;;;;;;2041548;29;20020;-79
2022/12/17 17:07:21;;;;;;;0.00;0.00;;;2.10;99.80;;;;;;2024375;29;20025;-79
2022/12/17 17:08:21;;;;;;;0.73;0.43;;;2.10;99.90;;;;;;2043761;29;20566;-80
2022/12/17 17:09:23;;;;;;;0.00;0.00;;;2.10;99.90;;;;;;2035382;29;20055;-78
2022/12/17 17:10:24;;;;;;;0.47;0.38;;;2.10;99.90;;;;;;2029538;29;20452;-79
2022/12/17 17:11:25;;;;;;;0.40;0.40;;;2.10;99.80;;;;;;2015440;29;20049;-78
2022/12/17 17:12:26;;;;;;;0.10;0.10;;;2.10;99.80;;;;;;2030839;29;20028;-78
2022/12/17 17:13:26;;;;;;;0.00;0.00;;;2.10;99.80;;;;;;2033714;29;20387;-79
2022/12/17 17:14:27;;;;;;;0.10;0.10;;;2.10;99.80;;;;;;2035846;29;20515;-78
2022/12/17 17:15:28;;;;;;;0.10;0.10;;;2.10;99.80;;;;;;2040431;29;20047;-79
2022/12/17 17:16:29;;;;;;;0.10;0.10;;;2.00;99.80;;;;;;2033794;29;20480;-79
2022/12/17 17:17:30;;;;;;;0.03;0.03;;;2.00;99.80;;;;;;2028289;29;20524;-78
2022/12/17 17:18:31;;;;;;;0.07;0.07;;;2.00;99.80;;;;;;2035818;29;20065;-78
2022/12/17 17:19:31;;;;;;;0.33;0.10;;;2.00;99.80;;;;;;2030197;29;20044;-79
2022/12/17 17:20:33;;;;;;;0.97;0.73;;;2.00;99.90;;;;;;2031501;29;20288;-83
2022/12/17 17:21:37;;;;;;;0.10;0.10;;;2.00;99.80;;;;;;2045915;29;20036;-78
2022/12/17 17:22:38;;;;;;;0.00;0.00;;;2.00;99.80;;;;;;2036812;29;20060;-78
2022/12/17 17:23:39;;;;;;;0.10;0.10;;;2.00;99.80;;;;;;2049969;29;20031;-79
2022/12/17 17:24:40;;;;;;;0.08;0.08;;;2.00;99.80;;;;;;2046450;29;20023;-80
2022/12/17 17:25:41;;;;;;;0.10;0.10;;;2.00;99.70;;;;;;2060254;28;20026;-79
2022/12/17 17:26:42;;;;;;;0.00;0.00;;;2.00;99.70;;;;;;2045023;29;20455;-80
2022/12/17 17:27:43;;;;;;;0.00;0.00;;;2.00;99.60;;;;;;2050096;29;20050;-79
2022/12/17 17:28:44;;;;;;;0.98;0.47;;;2.00;99.60;;;;;;2050333;29;20434;-79
2022/12/17 17:29:46;;;;;;;0.08;0.08;;;2.00;99.60;;;;;;2048753;29;20031;-79
2022/12/17 17:30:47;;;;;;;0.00;0.00;;;2.00;99.60;;;;;;2045951;29;20027;-79
2022/12/17 17:31:47;;;;;;;0.00;0.00;;;1.90;99.60;;;;;;2045910;29;20348;-79
2022/12/17 17:32:54;;;;;;;0.30;0.30;;;1.90;99.70;;;;;;2044398;29;20064;-80
2022/12/17 17:33:55;;;;;;;0.10;0.10;;;1.90;99.80;;;;;;2045114;29;20463;-79
2022/12/17 17:34:56;;;;;;;0.03;0.03;;;1.90;99.80;;;;;;2045795;29;20417;-78
2022/12/17 17:36:09;;;;;;;0.10;0.10;;;1.90;99.80;;;;;;2040336;29;20114;-78
2022/12/17 17:37:10;;;;;;;;;;;1.90;99.70;;;;;;2048367;28;20035;-79
2022/12/17 17:38:10;;;;;;;0.10;0.10;;;1.90;99.70;;;;;;2052265;28;20439;-79
2022/12/17 17:39:11;;;;;;;0.10;0.10;;;1.90;99.60;;;;;;2046293;29;20447;-78
2022/12/17 17:40:12;;;;;;;0.20;0.20;;;1.90;99.50;;;;;;2036014;29;20060;-79
2022/12/17 17:41:16;;;;;;;0.10;0.10;;;1.90;99.50;;;;;;2047170;29;20055;-78
2022/12/17 17:42:17;;;;;;;0.03;0.03;;;1.90;99.50;;;;;;2044322;29;20063;-79
2022/12/17 17:43:17;;;;;;;0.20;0.20;;;1.90;99.50;;;;;;2040421;29;20039;-79
2022/12/17 17:44:18;;;;;;;0.00;0.00;;;1.90;99.40;;;;;;2042209;29;20454;-79
2022/12/17 17:45:19;;;;;;;0.33;0.30;;;1.90;99.40;;;;;;2053337;28;20063;-79
2022/12/17 17:46:21;;;;;;;0.03;0.03;;;1.90;99.40;;;;;;2045552;29;20075;-79
2022/12/17 17:47:21;;;;;;;2.33;0.43;;;1.90;99.30;;;;;;2039875;29;20034;-79
2022/12/17 17:48:22;;;;;;;0.20;0.10;;;1.90;99.30;;;;;;2044779;29;20463;-79
2022/12/17 17:49:23;;;;;;;0.10;0.10;;;1.90;99.20;;;;;;2038613;29;20122;-79
2022/12/17 17:50:24;;;;;;;0.10;0.10;;;1.90;99.20;;;;;;2041723;29;20035;-79
2022/12/17 17:51:30;;;;;;;0.17;0.13;;;1.90;99.20;;;;;;2047031;29;20028;-82
2022/12/17 17:52:31;;;;;;;0.08;0.08;;;1.80;99.20;;;;;;2051276;29;20350;-79
2022/12/17 17:53:32;;;;;;;0.00;0.00;;;1.80;99.60;;;;;;2034162;29;20119;-79
2022/12/17 17:54:32;;;;;;;0.10;0.10;;;1.90;99.20;;;;;;2038458;29;20036;-79
2022/12/17 17:55:34;;;;;;;0.10;0.10;;;1.90;99.10;;;;;;2039143;29;20076;-80
2022/12/17 17:56:37;;;;;;;0.00;0.00;;;1.90;98.90;;;;;;2050851;28;20023;-79
2022/12/17 17:57:38;;;;;;;0.10;0.10;;;1.90;98.80;;;;;;2052073;29;20266;-81
2022/12/17 17:58:44;;;;;;;1.20;1.20;;;1.90;98.70;;;;;;2046963;29;20355;-79
2022/12/17 17:59:45;;;;;;;0.10;0.10;;;1.90;98.60;;;;;;2045512;29;20068;-79
2022/12/17 18:00:45;;;;;;;0.20;0.20;;;1.90;98.40;;;;;;2039296;29;20052;-80
2022/12/17 18:01:49;;;;;;;0.00;0.00;;;2.00;98.40;;;;;;2036956;29;20067;-80
2022/12/17 18:02:49;;;;;;;0.10;0.10;;;1.90;98.40;;;;;;2037894;29;20090;-80
2022/12/17 18:03:51;;;;;;;0.00;0.00;;;1.90;98.40;;;;;;2037928;29;20511;-82
2022/12/17 18:05:07;;;;;;;0.00;0.00;;;1.90;98.30;;;;;;2047158;28;20068;-82
2022/12/17 18:06:10;;;;;;;0.22;0.22;;;2.00;98.30;;;;;;2043483;29;20039;-81
2022/12/17 18:07:11;;;;;;;0.10;0.10;;;2.00;98.20;;;;;;2037543;29;20103;-81
2022/12/17 18:08:12;;;;;;;0.13;0.13;;;2.00;98.20;;;;;;2037626;29;20128;-81
2022/12/17 18:09:13;;;;;;;0.10;0.10;;;2.00;98.20;;;;;;2045134;29;20039;-82
2022/12/17 18:10:14;;;;;;;0.10;0.10;;;1.90;98.20;;;;;;2052624;29;20058;-81
2022/12/17 18:11:17;;;;;;;0.10;0.10;;;2.00;98.10;;;;;;2043898;29;20055;-80
2022/12/17 18:13:53;;;;;;;0.13;0.13;;;2.00;97.90;;;;;;2047379;29;20404;-81
2022/12/17 18:14:54;;;;;;;0.00;0.00;;;2.00;97.80;;;;;;2052567;28;20027;-81
2022/12/17 18:16:00;;;;;;;0.10;0.10;;;2.00;97.70;;;;;;2047840;29;20465;-81
2022/12/17 18:17:01;;;;;;;0.10;0.10;;;2.00;97.80;;;;;;2044945;29;20039;-81
2022/12/17 18:18:01;;;;;;;0.10;0.10;;;2.00;97.90;;;;;;2046025;29;20020;-80
2022/12/17 18:19:11;;;;;;;0.03;0.03;;;2.00;98.20;;;;;;2046474;29;20050;-82
2022/12/17 18:20:13;;;;;;;0.20;0.20;;;2.00;97.90;;;;;;2038063;29;20040;-81
2022/12/17 18:21:17;;;;;;;0.10;0.10;;;2.00;97.80;;;;;;2042569;29;20470;-80
2022/12/17 18:22:17;;;;;;;0.05;0.05;;;2.00;97.80;;;;;;2040002;29;20257;-81
2022/12/17 18:23:18;;;;;;;0.03;0.03;;;2.00;97.90;;;;;;2031374;29;20088;-79
2022/12/17 18:24:24;;;;;;;0.10;0.10;;;2.00;97.80;;;;;;2048183;29;20031;-80
2022/12/17 18:25:34;;;;;;;0.30;0.30;;;2.00;97.90;;;;;;2049905;29;20086;-82
2022/12/17 18:26:38;;;;;;;0.32;0.20;;;2.00;98.00;;;;;;2031171;29;20033;-80
2022/12/17 18:27:39;;;;;;;0.13;0.13;;;1.90;98.00;;;;;;2029493;29;20076;-79
2022/12/17 18:28:41;;;;;;;1.50;0.43;;;1.90;98.10;;;;;;2035198;29;20395;-79
2022/12/17 18:29:42;;;;;;;0.10;0.10;;;1.90;98.10;;;;;;2038090;29;20039;-78
2022/12/17 18:30:43;;;;;;;0.10;0.10;;;1.90;98.20;;;;;;2037460;29;20048;-79
2022/12/17 18:31:44;;;;;;;0.30;0.30;;;1.90;98.20;;;;;;2022295;29;20436;-79
2022/12/17 18:32:45;;;;;;;0.10;0.10;;;1.90;98.20;;;;;;2044288;28;20023;-78
2022/12/17 18:33:49;;;;;;;0.67;0.60;;;1.90;98.20;;;;;;2050313;29;20039;-78
2022/12/17 18:34:50;;;;;;;0.10;0.10;;;1.90;98.20;;;;;;2030821;29;20032;-78
2022/12/17 18:35:51;;;;;;;0.43;0.40;;;1.90;98.10;;;;;;2031179;29;20028;-78
2022/12/17 18:36:52;;;;;;;0.00;0.00;;;1.90;98.20;;;;;;2036946;29;20056;-79
2022/12/17 18:37:53;;;;;;;0.00;0.00;;;1.90;98.20;;;;;;2045817;29;20023;-78
2022/12/17 18:39:06;;;;;;;0.10;0.10;;;1.90;98.10;;;;;;2045410;29;20074;-78
2022/12/17 18:40:07;;;;;;;0.30;0.30;;;1.90;98.10;;;;;;2044586;28;20472;-77
2022/12/17 18:43:57;;;;;;;0.00;0.00;;;1.80;98.20;;;;;;2051999;29;20027;-78
2022/12/17 18:44:58;;;;;;;0.00;0.00;;;1.80;98.20;;;;;;2053413;28;20031;-79
2022/12/17 18:46:02;;;;;;;0.30;0.17;;;1.80;98.20;;;;;;2053141;29;20023;-78
2022/12/17 18:47:03;;;;;;;0.15;0.15;;;1.80;98.30;;;;;;2051545;29;20454;-78
2022/12/17 18:48:04;;;;;;;0.10;0.10;;;1.80;98.30;;;;;;2036918;29;20096;-78
2022/12/17 18:49:08;;;;;;;0.10;0.10;;;1.80;98.30;;;;;;2049339;29;20038;-79
2022/12/17 18:50:11;;;;;;;0.00;0.00;;;1.80;98.40;;;;;;2037269;29;20103;-78
2022/12/17 18:51:11;;;;;;;0.17;0.17;;;1.80;98.40;;;;;;2044696;29;20028;-78
2022/12/17 18:52:12;;;;;;;0.00;0.00;;;1.80;98.40;;;;;;2029991;29;20048;-78
2022/12/17 18:53:13;;;;;;;0.10;0.10;;;1.80;98.30;;;;;;2035570;29;20666;-79
2022/12/17 18:54:16;;;;;;;0.47;0.33;;;1.80;98.20;;;;;;2038731;29;20036;-79
2022/12/17 18:55:17;;;;;;;0.15;0.15;;;1.70;98.20;;;;;;2031135;29;20037;-79
2022/12/17 18:56:21;;;;;;;0.10;0.10;;;1.70;98.30;;;;;;2039152;29;20032;-83
2022/12/17 18:57:24;;;;;;;0.85;0.20;;;1.70;98.30;;;;;;2047079;29;20054;-77
2022/12/17 18:58:25;;;;;;;0.00;0.00;;;1.70;98.30;;;;;;2045149;29;20047;-79
2022/12/17 18:59:27;;;;;;;0.00;0.00;;;1.70;98.40;;;;;;2028925;29;20029;-79
2022/12/17 19:00:28;;;;;;;0.47;0.32;;;1.60;98.30;;;;;;2028919;29;20380;-79
2022/12/17 19:01:32;;;;;;;0.73;0.60;;;1.60;98.30;;;;;;2033137;29;20032;-78
2022/12/17 19:02:33;;;;;;;0.05;0.05;;;1.70;98.30;;;;;;2035531;29;20042;-78
2022/12/17 19:03:33;;;;;;;0.70;0.63;;;1.60;98.30;;;;;;2035274;29;20467;-81
2022/12/17 19:04:34;;;;;;;0.00;0.00;;;1.60;98.20;;;;;;2027997;29;20056;-80
2022/12/17 19:05:38;;;;;;;0.30;0.30;;;1.60;98.30;;;;;;2046823;29;20055;-81
2022/12/17 19:06:40;;;;;;;0.08;0.08;;;1.60;98.20;;;;;;2037236;29;20376;-81
2022/12/17 19:07:41;;;;;;;0.10;0.10;;;1.60;98.30;;;;;;2039681;29;20032;-80